sensor_id;sensor_type;location;lat;lon;timestamp;P1;durP1;ratioP1;P2;durP2;ratioP2
66487;SDS011;53304;54.550;18.526;2023-02-28T00:01:26;24.30;;;13.40;;
66487;SDS011;53304;54.550;18.526;2023-02-28T00:03:51;21.42;;;12.40;;
66487;SDS011;53304;54.550;18.526;2023-02-28T00:06:21;20.98;;;12.35;;
66487;SDS011;53304;54.550;18.526;2023-02-28T00:08:49;22.40;;;12.35;;
66487;SDS011;53304;54.550;18.526;2023-02-28T00:11:17;21.58;;;11.80;;
66487;SDS011;53304;54.550;18.526;2023-02-28T00:13:44;22.77;;;12.10;;
66487;SDS011;53304;54.550;18.526;2023-02-28T00:16:14;18.60;;;12.25;;
66487;SDS011;53304;54.550;18.526;2023-02-28T00:18:43;20.40;;;12.02;;
66487;SDS011;53304;54.550;18.526;2023-02-28T00:21:09;23.05;;;11.98;;
66487;SDS011;53304;54.550;18.526;2023-02-28T00:23:34;22.27;;;11.70;;
66487;SDS011;53304;54.550;18.526;2023-02-28T00:26:05;22.25;;;11.73;;
66487;SDS011;53304;54.550;18.526;2023-02-28T00:28:32;21.33;;;12.02;;
66487;SDS011;53304;54.550;18.526;2023-02-28T00:31:00;19.17;;;11.25;;
66487;SDS011;53304;54.550;18.526;2023-02-28T00:33:26;21.05;;;11.68;;
66487;SDS011;53304;54.550;18.526;2023-02-28T00:36:04;21.48;;;11.85;;
66487;SDS011;53304;54.550;18.526;2023-02-28T00:38:34;23.17;;;12.07;;
66487;SDS011;53304;54.550;18.526;2023-02-28T00:41:03;19.10;;;11.90;;
66487;SDS011;53304;54.550;18.526;2023-02-28T00:43:32;19.42;;;10.77;;
66487;SDS011;53304;54.550;18.526;2023-02-28T00:45:58;21.30;;;11.80;;
66487;SDS011;53304;54.550;18.526;2023-02-28T00:48:26;19.90;;;11.52;;
66487;SDS011;53304;54.550;18.526;2023-02-28T00:50:54;21.13;;;11.48;;
66487;SDS011;53304;54.550;18.526;2023-02-28T00:53:21;20.02;;;11.68;;
66487;SDS011;53304;54.550;18.526;2023-02-28T00:55:47;20.95;;;11.60;;
66487;SDS011;53304;54.550;18.526;2023-02-28T00:58:17;20.15;;;10.98;;
66487;SDS011;53304;54.550;18.526;2023-02-28T01:00:43;20.90;;;11.43;;
66487;SDS011;53304;54.550;18.526;2023-02-28T01:03:17;18.33;;;10.52;;
66487;SDS011;53304;54.550;18.526;2023-02-28T01:05:44;21.92;;;11.35;;
66487;SDS011;53304;54.550;18.526;2023-02-28T01:08:10;19.65;;;11.32;;
66487;SDS011;53304;54.550;18.526;2023-02-28T01:10:41;20.08;;;10.82;;
66487;SDS011;53304;54.550;18.526;2023-02-28T01:13:07;19.00;;;10.65;;
66487;SDS011;53304;54.550;18.526;2023-02-28T01:15:38;19.52;;;10.73;;
66487;SDS011;53304;54.550;18.526;2023-02-28T01:18:12;20.33;;;10.52;;
66487;SDS011;53304;54.550;18.526;2023-02-28T01:20:39;17.27;;;10.13;;
66487;SDS011;53304;54.550;18.526;2023-02-28T01:23:05;19.05;;;11.07;;
66487;SDS011;53304;54.550;18.526;2023-02-28T01:25:38;18.98;;;9.68;;
66487;SDS011;53304;54.550;18.526;2023-02-28T01:28:04;16.70;;;9.85;;
66487;SDS011;53304;54.550;18.526;2023-02-28T01:30:33;19.33;;;9.93;;
66487;SDS011;53304;54.550;18.526;2023-02-28T01:33:01;21.95;;;10.05;;
66487;SDS011;53304;54.550;18.526;2023-02-28T01:35:31;17.25;;;9.32;;
66487;SDS011;53304;54.550;18.526;2023-02-28T01:37:57;17.10;;;9.60;;
66487;SDS011;53304;54.550;18.526;2023-02-28T01:40:23;17.85;;;9.75;;
66487;SDS011;53304;54.550;18.526;2023-02-28T01:42:48;17.70;;;9.23;;
66487;SDS011;53304;54.550;18.526;2023-02-28T01:45:17;16.77;;;9.35;;
66487;SDS011;53304;54.550;18.526;2023-02-28T01:47:43;16.98;;;9.15;;
66487;SDS011;53304;54.550;18.526;2023-02-28T01:50:12;15.18;;;8.80;;
66487;SDS011;53304;54.550;18.526;2023-02-28T01:52:42;14.55;;;8.52;;
66487;SDS011;53304;54.550;18.526;2023-02-28T01:55:10;14.95;;;8.25;;
66487;SDS011;53304;54.550;18.526;2023-02-28T01:57:42;16.38;;;8.77;;
66487;SDS011;53304;54.550;18.526;2023-02-28T02:00:11;13.30;;;8.00;;
66487;SDS011;53304;54.550;18.526;2023-02-28T02:02:45;13.60;;;7.82;;
66487;SDS011;53304;54.550;18.526;2023-02-28T02:07:51;13.40;;;7.85;;
66487;SDS011;53304;54.550;18.526;2023-02-28T02:21:44;12.45;;;7.25;;
66487;SDS011;53304;54.550;18.526;2023-02-28T02:30:21;15.35;;;7.55;;
66487;SDS011;53304;54.550;18.526;2023-02-28T02:46:45;11.85;;;6.20;;
66487;SDS011;53304;54.550;18.526;2023-02-28T02:49:15;10.50;;;6.22;;
66487;SDS011;53304;54.550;18.526;2023-02-28T02:51:44;11.13;;;6.35;;
66487;SDS011;53304;54.550;18.526;2023-02-28T02:54:13;13.07;;;6.25;;
66487;SDS011;53304;54.550;18.526;2023-02-28T02:56:43;12.05;;;6.20;;
66487;SDS011;53304;54.550;18.526;2023-02-28T02:59:13;10.90;;;6.03;;
66487;SDS011;53304;54.550;18.526;2023-02-28T03:01:49;11.07;;;6.05;;
66487;SDS011;53304;54.550;18.526;2023-02-28T03:04:17;10.05;;;5.88;;
66487;SDS011;53304;54.550;18.526;2023-02-28T03:06:46;12.68;;;5.70;;
66487;SDS011;53304;54.550;18.526;2023-02-28T03:09:15;10.93;;;5.45;;
66487;SDS011;53304;54.550;18.526;2023-02-28T03:11:40;10.88;;;5.82;;
66487;SDS011;53304;54.550;18.526;2023-02-28T03:14:20;9.60;;;5.70;;
66487;SDS011;53304;54.550;18.526;2023-02-28T03:19:34;10.43;;;5.07;;
66487;SDS011;53304;54.550;18.526;2023-02-28T03:24:56;10.75;;;5.43;;
66487;SDS011;53304;54.550;18.526;2023-02-28T03:27:34;12.02;;;5.50;;
66487;SDS011;53304;54.550;18.526;2023-02-28T03:35:24;10.38;;;5.03;;
66487;SDS011;53304;54.550;18.526;2023-02-28T03:37:53;10.02;;;5.22;;
66487;SDS011;53304;54.550;18.526;2023-02-28T03:40:25;9.57;;;5.20;;
66487;SDS011;53304;54.550;18.526;2023-02-28T03:42:59;9.25;;;4.70;;
66487;SDS011;53304;54.550;18.526;2023-02-28T03:45:35;8.63;;;4.90;;
66487;SDS011;53304;54.550;18.526;2023-02-28T03:50:37;8.80;;;4.60;;
66487;SDS011;53304;54.550;18.526;2023-02-28T03:53:14;8.60;;;4.60;;
66487;SDS011;53304;54.550;18.526;2023-02-28T03:55:44;9.20;;;4.72;;
66487;SDS011;53304;54.550;18.526;2023-02-28T03:58:17;8.23;;;4.75;;
66487;SDS011;53304;54.550;18.526;2023-02-28T04:01:08;8.30;;;4.22;;
66487;SDS011;53304;54.550;18.526;2023-02-28T04:03:38;8.65;;;4.82;;
66487;SDS011;53304;54.550;18.526;2023-02-28T04:06:07;9.20;;;4.53;;
66487;SDS011;53304;54.550;18.526;2023-02-28T04:08:39;8.07;;;4.15;;
66487;SDS011;53304;54.550;18.526;2023-02-28T04:11:22;8.20;;;4.50;;
66487;SDS011;53304;54.550;18.526;2023-02-28T04:14:07;9.13;;;4.60;;
66487;SDS011;53304;54.550;18.526;2023-02-28T04:16:34;7.95;;;4.30;;
66487;SDS011;53304;54.550;18.526;2023-02-28T04:19:04;7.32;;;4.10;;
66487;SDS011;53304;54.550;18.526;2023-02-28T04:21:35;7.50;;;3.80;;
66487;SDS011;53304;54.550;18.526;2023-02-28T04:24:02;10.88;;;4.07;;
66487;SDS011;53304;54.550;18.526;2023-02-28T04:26:31;8.00;;;4.20;;
66487;SDS011;53304;54.550;18.526;2023-02-28T04:29:03;8.35;;;4.00;;
66487;SDS011;53304;54.550;18.526;2023-02-28T04:31:30;7.72;;;4.05;;
66487;SDS011;53304;54.550;18.526;2023-02-28T04:34:01;8.45;;;4.10;;
66487;SDS011;53304;54.550;18.526;2023-02-28T04:36:29;8.38;;;4.10;;
66487;SDS011;53304;54.550;18.526;2023-02-28T04:38:55;7.53;;;3.88;;
66487;SDS011;53304;54.550;18.526;2023-02-28T04:41:20;8.00;;;4.05;;
66487;SDS011;53304;54.550;18.526;2023-02-28T04:43:48;7.53;;;4.00;;
66487;SDS011;53304;54.550;18.526;2023-02-28T04:46:15;6.85;;;3.75;;
66487;SDS011;53304;54.550;18.526;2023-02-28T04:48:43;7.85;;;4.15;;
66487;SDS011;53304;54.550;18.526;2023-02-28T04:51:10;7.60;;;3.90;;
66487;SDS011;53304;54.550;18.526;2023-02-28T04:53:42;7.07;;;4.10;;
66487;SDS011;53304;54.550;18.526;2023-02-28T04:56:11;8.13;;;3.70;;
66487;SDS011;53304;54.550;18.526;2023-02-28T04:58:38;6.78;;;3.83;;
66487;SDS011;53304;54.550;18.526;2023-02-28T05:01:27;7.00;;;4.03;;
66487;SDS011;53304;54.550;18.526;2023-02-28T05:03:50;6.88;;;3.90;;
66487;SDS011;53304;54.550;18.526;2023-02-28T05:06:19;8.45;;;3.90;;
66487;SDS011;53304;54.550;18.526;2023-02-28T05:08:45;7.55;;;3.85;;
66487;SDS011;53304;54.550;18.526;2023-02-28T05:11:15;8.93;;;4.18;;
66487;SDS011;53304;54.550;18.526;2023-02-28T05:13:46;9.35;;;4.00;;
66487;SDS011;53304;54.550;18.526;2023-02-28T05:16:12;7.78;;;3.85;;
66487;SDS011;53304;54.550;18.526;2023-02-28T05:18:37;8.15;;;3.95;;
66487;SDS011;53304;54.550;18.526;2023-02-28T05:21:06;7.85;;;4.15;;
66487;SDS011;53304;54.550;18.526;2023-02-28T05:23:31;9.27;;;4.38;;
66487;SDS011;53304;54.550;18.526;2023-02-28T05:25:57;8.07;;;4.40;;
66487;SDS011;53304;54.550;18.526;2023-02-28T05:28:23;9.13;;;4.65;;
66487;SDS011;53304;54.550;18.526;2023-02-28T05:30:50;7.05;;;4.50;;
66487;SDS011;53304;54.550;18.526;2023-02-28T05:33:18;8.20;;;4.55;;
66487;SDS011;53304;54.550;18.526;2023-02-28T05:35:48;10.07;;;4.57;;
66487;SDS011;53304;54.550;18.526;2023-02-28T05:38:19;9.18;;;4.60;;
66487;SDS011;53304;54.550;18.526;2023-02-28T05:40:44;8.95;;;4.20;;
66487;SDS011;53304;54.550;18.526;2023-02-28T05:43:10;9.27;;;4.85;;
66487;SDS011;53304;54.550;18.526;2023-02-28T05:45:35;9.52;;;4.72;;
66487;SDS011;53304;54.550;18.526;2023-02-28T05:48:01;7.70;;;4.25;;
66487;SDS011;53304;54.550;18.526;2023-02-28T05:50:29;8.65;;;4.68;;
66487;SDS011;53304;54.550;18.526;2023-02-28T05:52:57;8.77;;;4.47;;
66487;SDS011;53304;54.550;18.526;2023-02-28T05:55:25;8.60;;;4.90;;
66487;SDS011;53304;54.550;18.526;2023-02-28T05:57:53;8.02;;;4.75;;
66487;SDS011;53304;54.550;18.526;2023-02-28T06:00:21;9.00;;;4.65;;
66487;SDS011;53304;54.550;18.526;2023-02-28T06:02:52;8.75;;;4.63;;
66487;SDS011;53304;54.550;18.526;2023-02-28T06:05:21;7.53;;;4.25;;
66487;SDS011;53304;54.550;18.526;2023-02-28T06:07:49;10.13;;;4.88;;
66487;SDS011;53304;54.550;18.526;2023-02-28T06:10:19;8.02;;;4.40;;
66487;SDS011;53304;54.550;18.526;2023-02-28T06:12:44;13.43;;;4.43;;
66487;SDS011;53304;54.550;18.526;2023-02-28T06:15:12;9.73;;;4.70;;
66487;SDS011;53304;54.550;18.526;2023-02-28T06:17:39;7.30;;;3.97;;
66487;SDS011;53304;54.550;18.526;2023-02-28T06:20:07;8.73;;;4.78;;
66487;SDS011;53304;54.550;18.526;2023-02-28T06:22:37;7.97;;;4.45;;
66487;SDS011;53304;54.550;18.526;2023-02-28T06:25:05;8.77;;;4.53;;
66487;SDS011;53304;54.550;18.526;2023-02-28T06:27:32;9.13;;;4.25;;
66487;SDS011;53304;54.550;18.526;2023-02-28T06:29:58;8.38;;;4.50;;
66487;SDS011;53304;54.550;18.526;2023-02-28T06:32:26;8.05;;;4.38;;
66487;SDS011;53304;54.550;18.526;2023-02-28T06:34:54;8.40;;;3.95;;
66487;SDS011;53304;54.550;18.526;2023-02-28T06:37:19;9.30;;;4.20;;
66487;SDS011;53304;54.550;18.526;2023-02-28T06:39:45;13.45;;;5.05;;
66487;SDS011;53304;54.550;18.526;2023-02-28T06:42:10;11.65;;;3.90;;
66487;SDS011;53304;54.550;18.526;2023-02-28T06:44:40;18.73;;;5.10;;
66487;SDS011;53304;54.550;18.526;2023-02-28T06:47:07;10.63;;;4.63;;
66487;SDS011;53304;54.550;18.526;2023-02-28T06:49:34;12.10;;;4.90;;
66487;SDS011;53304;54.550;18.526;2023-02-28T06:52:03;9.07;;;5.10;;
66487;SDS011;53304;54.550;18.526;2023-02-28T06:54:29;12.68;;;5.47;;
66487;SDS011;53304;54.550;18.526;2023-02-28T06:56:58;10.52;;;4.97;;
66487;SDS011;53304;54.550;18.526;2023-02-28T06:59:24;10.30;;;4.97;;
66487;SDS011;53304;54.550;18.526;2023-02-28T07:01:49;13.75;;;5.30;;
66487;SDS011;53304;54.550;18.526;2023-02-28T07:04:15;10.05;;;4.90;;
66487;SDS011;53304;54.550;18.526;2023-02-28T07:06:40;12.77;;;5.63;;
66487;SDS011;53304;54.550;18.526;2023-02-28T07:09:06;9.02;;;5.00;;
66487;SDS011;53304;54.550;18.526;2023-02-28T07:11:31;13.23;;;5.18;;
66487;SDS011;53304;54.550;18.526;2023-02-28T07:13:59;11.93;;;4.88;;
66487;SDS011;53304;54.550;18.526;2023-02-28T07:16:25;13.75;;;5.15;;
66487;SDS011;53304;54.550;18.526;2023-02-28T07:18:53;12.63;;;4.80;;
66487;SDS011;53304;54.550;18.526;2023-02-28T07:21:23;25.70;;;7.45;;
66487;SDS011;53304;54.550;18.526;2023-02-28T07:23:50;28.13;;;7.40;;
66487;SDS011;53304;54.550;18.526;2023-02-28T07:26:18;21.25;;;6.88;;
66487;SDS011;53304;54.550;18.526;2023-02-28T07:28:47;25.27;;;6.88;;
66487;SDS011;53304;54.550;18.526;2023-02-28T07:31:13;16.45;;;5.80;;
66487;SDS011;53304;54.550;18.526;2023-02-28T07:33:43;24.60;;;7.05;;
66487;SDS011;53304;54.550;18.526;2023-02-28T07:36:10;20.48;;;6.40;;
66487;SDS011;53304;54.550;18.526;2023-02-28T07:38:40;15.85;;;6.60;;
66487;SDS011;53304;54.550;18.526;2023-02-28T07:41:07;19.02;;;6.00;;
66487;SDS011;53304;54.550;18.526;2023-02-28T07:43:36;17.10;;;6.00;;
66487;SDS011;53304;54.550;18.526;2023-02-28T07:46:04;18.10;;;6.18;;
66487;SDS011;53304;54.550;18.526;2023-02-28T07:48:34;15.60;;;5.82;;
66487;SDS011;53304;54.550;18.526;2023-02-28T07:51:00;18.08;;;6.13;;
66487;SDS011;53304;54.550;18.526;2023-02-28T07:53:28;16.23;;;5.78;;
66487;SDS011;53304;54.550;18.526;2023-02-28T07:55:57;14.38;;;6.00;;
66487;SDS011;53304;54.550;18.526;2023-02-28T07:58:26;13.02;;;5.72;;
66487;SDS011;53304;54.550;18.526;2023-02-28T08:00:52;14.93;;;5.97;;
66487;SDS011;53304;54.550;18.526;2023-02-28T08:03:23;14.02;;;5.68;;
66487;SDS011;53304;54.550;18.526;2023-02-28T08:05:49;10.90;;;5.03;;
66487;SDS011;53304;54.550;18.526;2023-02-28T08:08:17;13.15;;;5.90;;
66487;SDS011;53304;54.550;18.526;2023-02-28T08:10:42;14.80;;;6.00;;
66487;SDS011;53304;54.550;18.526;2023-02-28T08:13:10;13.70;;;6.10;;
66487;SDS011;53304;54.550;18.526;2023-02-28T08:15:36;15.20;;;5.85;;
66487;SDS011;53304;54.550;18.526;2023-02-28T08:18:03;15.27;;;5.88;;
66487;SDS011;53304;54.550;18.526;2023-02-28T08:20:29;13.20;;;5.82;;
66487;SDS011;53304;54.550;18.526;2023-02-28T08:22:57;14.18;;;5.60;;
66487;SDS011;53304;54.550;18.526;2023-02-28T08:25:23;14.38;;;6.10;;
66487;SDS011;53304;54.550;18.526;2023-02-28T08:27:50;11.68;;;5.35;;
66487;SDS011;53304;54.550;18.526;2023-02-28T08:30:16;12.30;;;5.28;;
66487;SDS011;53304;54.550;18.526;2023-02-28T08:32:44;12.25;;;5.90;;
66487;SDS011;53304;54.550;18.526;2023-02-28T08:35:12;13.50;;;5.28;;
66487;SDS011;53304;54.550;18.526;2023-02-28T08:37:38;14.65;;;5.10;;
66487;SDS011;53304;54.550;18.526;2023-02-28T08:40:05;11.10;;;5.18;;
66487;SDS011;53304;54.550;18.526;2023-02-28T08:42:32;10.93;;;5.43;;
66487;SDS011;53304;54.550;18.526;2023-02-28T08:44:57;11.43;;;5.10;;
66487;SDS011;53304;54.550;18.526;2023-02-28T08:47:23;12.15;;;5.00;;
66487;SDS011;53304;54.550;18.526;2023-02-28T08:49:48;8.27;;;4.55;;
66487;SDS011;53304;54.550;18.526;2023-02-28T08:52:14;9.07;;;5.05;;
66487;SDS011;53304;54.550;18.526;2023-02-28T08:54:44;9.80;;;4.50;;
66487;SDS011;53304;54.550;18.526;2023-02-28T08:57:09;9.68;;;4.80;;
66487;SDS011;53304;54.550;18.526;2023-02-28T08:59:37;10.85;;;4.70;;
66487;SDS011;53304;54.550;18.526;2023-02-28T09:02:03;10.77;;;4.38;;
66487;SDS011;53304;54.550;18.526;2023-02-28T09:04:30;21.70;;;5.90;;
66487;SDS011;53304;54.550;18.526;2023-02-28T09:06:58;13.40;;;4.63;;
66487;SDS011;53304;54.550;18.526;2023-02-28T09:09:24;9.27;;;4.80;;
66487;SDS011;53304;54.550;18.526;2023-02-28T09:11:51;10.75;;;4.80;;
66487;SDS011;53304;54.550;18.526;2023-02-28T09:14:17;8.82;;;4.80;;
66487;SDS011;53304;54.550;18.526;2023-02-28T09:16:42;10.65;;;4.50;;
66487;SDS011;53304;54.550;18.526;2023-02-28T09:19:10;24.15;;;6.13;;
66487;SDS011;53304;54.550;18.526;2023-02-28T09:21:37;15.32;;;5.25;;
66487;SDS011;53304;54.550;18.526;2023-02-28T09:24:04;14.23;;;5.03;;
66487;SDS011;53304;54.550;18.526;2023-02-28T09:26:30;14.05;;;4.22;;
66487;SDS011;53304;54.550;18.526;2023-02-28T09:28:56;14.05;;;5.13;;
66487;SDS011;53304;54.550;18.526;2023-02-28T09:31:24;12.95;;;4.30;;
66487;SDS011;53304;54.550;18.526;2023-02-28T09:33:52;13.68;;;4.45;;
66487;SDS011;53304;54.550;18.526;2023-02-28T09:36:19;9.98;;;3.78;;
66487;SDS011;53304;54.550;18.526;2023-02-28T09:38:52;9.48;;;3.92;;
66487;SDS011;53304;54.550;18.526;2023-02-28T09:41:22;9.65;;;3.70;;
66487;SDS011;53304;54.550;18.526;2023-02-28T09:43:57;9.77;;;4.00;;
66487;SDS011;53304;54.550;18.526;2023-02-28T09:46:36;8.63;;;3.60;;
66487;SDS011;53304;54.550;18.526;2023-02-28T09:49:16;10.23;;;3.97;;
66487;SDS011;53304;54.550;18.526;2023-02-28T09:54:49;7.72;;;3.50;;
66487;SDS011;53304;54.550;18.526;2023-02-28T10:00:18;8.57;;;3.40;;
66487;SDS011;53304;54.550;18.526;2023-02-28T10:10:45;7.07;;;3.25;;
66487;SDS011;53304;54.550;18.526;2023-02-28T10:15:58;10.45;;;3.17;;
66487;SDS011;53304;54.550;18.526;2023-02-28T10:18:29;7.05;;;3.10;;
66487;SDS011;53304;54.550;18.526;2023-02-28T10:21:00;6.22;;;3.20;;
66487;SDS011;53304;54.550;18.526;2023-02-28T10:23:31;10.88;;;3.28;;
66487;SDS011;53304;54.550;18.526;2023-02-28T10:26:17;6.85;;;2.83;;
66487;SDS011;53304;54.550;18.526;2023-02-28T10:28:43;9.02;;;3.55;;
66487;SDS011;53304;54.550;18.526;2023-02-28T10:31:14;8.25;;;3.75;;
66487;SDS011;53304;54.550;18.526;2023-02-28T10:33:43;7.57;;;3.72;;
66487;SDS011;53304;54.550;18.526;2023-02-28T10:36:10;10.57;;;3.55;;
66487;SDS011;53304;54.550;18.526;2023-02-28T10:38:41;7.30;;;3.50;;
66487;SDS011;53304;54.550;18.526;2023-02-28T10:41:09;7.70;;;3.33;;
66487;SDS011;53304;54.550;18.526;2023-02-28T10:43:37;10.45;;;3.70;;
66487;SDS011;53304;54.550;18.526;2023-02-28T10:48:36;9.33;;;3.70;;
66487;SDS011;53304;54.550;18.526;2023-02-28T10:51:14;7.50;;;3.50;;
66487;SDS011;53304;54.550;18.526;2023-02-28T10:56:14;8.07;;;3.38;;
66487;SDS011;53304;54.550;18.526;2023-02-28T10:58:47;9.18;;;3.35;;
66487;SDS011;53304;54.550;18.526;2023-02-28T11:06:59;7.28;;;3.10;;
66487;SDS011;53304;54.550;18.526;2023-02-28T11:12:05;7.25;;;3.42;;
66487;SDS011;53304;54.550;18.526;2023-02-28T11:14:36;8.13;;;3.50;;
66487;SDS011;53304;54.550;18.526;2023-02-28T11:17:14;6.10;;;2.90;;
66487;SDS011;53304;54.550;18.526;2023-02-28T11:19:51;7.07;;;3.08;;
66487;SDS011;53304;54.550;18.526;2023-02-28T11:22:19;8.40;;;3.42;;
66487;SDS011;53304;54.550;18.526;2023-02-28T11:24:52;6.60;;;2.90;;
66487;SDS011;53304;54.550;18.526;2023-02-28T11:27:39;6.20;;;3.13;;
66487;SDS011;53304;54.550;18.526;2023-02-28T11:32:56;5.82;;;3.20;;
66487;SDS011;53304;54.550;18.526;2023-02-28T11:35:36;7.47;;;3.10;;
66487;SDS011;53304;54.550;18.526;2023-02-28T11:38:02;6.30;;;2.85;;
66487;SDS011;53304;54.550;18.526;2023-02-28T11:40:45;6.00;;;2.90;;
66487;SDS011;53304;54.550;18.526;2023-02-28T11:51:26;6.35;;;2.92;;
66487;SDS011;53304;54.550;18.526;2023-02-28T12:05:01;14.25;;;3.40;;
66487;SDS011;53304;54.550;18.526;2023-02-28T12:07:41;7.65;;;3.33;;
66487;SDS011;53304;54.550;18.526;2023-02-28T12:13:00;7.15;;;2.88;;
66487;SDS011;53304;54.550;18.526;2023-02-28T12:27:43;12.43;;;3.08;;
66487;SDS011;53304;54.550;18.526;2023-02-28T12:30:46;6.55;;;2.42;;
66487;SDS011;53304;54.550;18.526;2023-02-28T12:33:16;5.32;;;2.60;;
66487;SDS011;53304;54.550;18.526;2023-02-28T12:38:29;5.63;;;2.42;;
66487;SDS011;53304;54.550;18.526;2023-02-28T12:43:46;7.97;;;2.85;;
66487;SDS011;53304;54.550;18.526;2023-02-28T12:48:50;10.18;;;2.95;;
66487;SDS011;53304;54.550;18.526;2023-02-28T12:51:20;8.82;;;3.13;;
66487;SDS011;53304;54.550;18.526;2023-02-28T12:54:04;6.38;;;2.78;;
66487;SDS011;53304;54.550;18.526;2023-02-28T12:57:00;9.63;;;3.00;;
66487;SDS011;53304;54.550;18.526;2023-02-28T12:59:55;19.92;;;4.35;;
66487;SDS011;53304;54.550;18.526;2023-02-28T13:11:14;8.45;;;3.50;;
66487;SDS011;53304;54.550;18.526;2023-02-28T13:14:03;8.23;;;3.25;;
66487;SDS011;53304;54.550;18.526;2023-02-28T13:19:17;6.97;;;3.50;;
66487;SDS011;53304;54.550;18.526;2023-02-28T13:21:44;9.48;;;3.10;;
66487;SDS011;53304;54.550;18.526;2023-02-28T13:24:12;9.23;;;3.42;;
66487;SDS011;53304;54.550;18.526;2023-02-28T13:29:34;6.55;;;3.00;;
66487;SDS011;53304;54.550;18.526;2023-02-28T13:34:47;6.05;;;2.72;;
66487;SDS011;53304;54.550;18.526;2023-02-28T13:39:55;8.88;;;2.92;;
66487;SDS011;53304;54.550;18.526;2023-02-28T13:47:31;8.95;;;3.10;;
66487;SDS011;53304;54.550;18.526;2023-02-28T14:06:23;8.32;;;2.88;;
66487;SDS011;53304;54.550;18.526;2023-02-28T14:08:57;7.60;;;2.45;;
66487;SDS011;53304;54.550;18.526;2023-02-28T14:11:41;6.18;;;2.75;;
66487;SDS011;53304;54.550;18.526;2023-02-28T14:17:04;7.30;;;2.95;;
66487;SDS011;53304;54.550;18.526;2023-02-28T14:19:35;5.53;;;2.60;;
66487;SDS011;53304;54.550;18.526;2023-02-28T14:38:30;6.40;;;2.70;;
66487;SDS011;53304;54.550;18.526;2023-02-28T14:40:58;6.85;;;2.70;;
66487;SDS011;53304;54.550;18.526;2023-02-28T14:43:27;5.95;;;2.85;;
66487;SDS011;53304;54.550;18.526;2023-02-28T14:45:57;5.93;;;2.78;;
66487;SDS011;53304;54.550;18.526;2023-02-28T14:48:24;6.40;;;2.45;;
66487;SDS011;53304;54.550;18.526;2023-02-28T14:50:54;4.88;;;2.22;;
66487;SDS011;53304;54.550;18.526;2023-02-28T14:53:25;6.15;;;2.53;;
66487;SDS011;53304;54.550;18.526;2023-02-28T14:55:52;4.63;;;2.30;;
66487;SDS011;53304;54.550;18.526;2023-02-28T15:00:58;8.27;;;2.78;;
66487;SDS011;53304;54.550;18.526;2023-02-28T15:03:38;5.90;;;2.50;;
66487;SDS011;53304;54.550;18.526;2023-02-28T15:06:18;6.23;;;2.47;;
66487;SDS011;53304;54.550;18.526;2023-02-28T15:08:44;6.28;;;2.60;;
66487;SDS011;53304;54.550;18.526;2023-02-28T15:11:16;4.72;;;2.55;;
66487;SDS011;53304;54.550;18.526;2023-02-28T15:13:53;4.88;;;2.40;;
66487;SDS011;53304;54.550;18.526;2023-02-28T15:16:22;4.65;;;2.40;;
66487;SDS011;53304;54.550;18.526;2023-02-28T15:18:53;4.38;;;2.40;;
66487;SDS011;53304;54.550;18.526;2023-02-28T15:21:21;6.65;;;2.60;;
66487;SDS011;53304;54.550;18.526;2023-02-28T15:23:49;5.65;;;2.53;;
66487;SDS011;53304;54.550;18.526;2023-02-28T15:26:22;7.47;;;2.33;;
66487;SDS011;53304;54.550;18.526;2023-02-28T15:28:51;5.25;;;2.50;;
66487;SDS011;53304;54.550;18.526;2023-02-28T15:31:23;5.20;;;2.43;;
66487;SDS011;53304;54.550;18.526;2023-02-28T15:34:04;5.40;;;2.55;;
66487;SDS011;53304;54.550;18.526;2023-02-28T15:36:32;7.20;;;2.67;;
66487;SDS011;53304;54.550;18.526;2023-02-28T15:39:01;6.97;;;2.45;;
66487;SDS011;53304;54.550;18.526;2023-02-28T15:41:28;6.32;;;2.70;;
66487;SDS011;53304;54.550;18.526;2023-02-28T15:44:13;6.22;;;2.50;;
66487;SDS011;53304;54.550;18.526;2023-02-28T15:46:52;6.13;;;2.47;;
66487;SDS011;53304;54.550;18.526;2023-02-28T15:49:45;5.28;;;2.40;;
66487;SDS011;53304;54.550;18.526;2023-02-28T15:52:16;6.82;;;2.60;;
66487;SDS011;53304;54.550;18.526;2023-02-28T15:54:46;4.75;;;2.40;;
66487;SDS011;53304;54.550;18.526;2023-02-28T15:57:22;4.88;;;2.38;;
66487;SDS011;53304;54.550;18.526;2023-02-28T15:59:50;4.97;;;2.22;;
66487;SDS011;53304;54.550;18.526;2023-02-28T16:02:31;6.20;;;2.63;;
66487;SDS011;53304;54.550;18.526;2023-02-28T16:07:32;4.78;;;2.70;;
66487;SDS011;53304;54.550;18.526;2023-02-28T16:10:00;5.82;;;2.60;;
66487;SDS011;53304;54.550;18.526;2023-02-28T16:12:29;5.93;;;2.38;;
66487;SDS011;53304;54.550;18.526;2023-02-28T16:14:59;6.85;;;2.60;;
66487;SDS011;53304;54.550;18.526;2023-02-28T16:17:38;6.63;;;2.72;;
66487;SDS011;53304;54.550;18.526;2023-02-28T16:20:13;4.72;;;2.50;;
66487;SDS011;53304;54.550;18.526;2023-02-28T16:22:39;5.40;;;2.80;;
66487;SDS011;53304;54.550;18.526;2023-02-28T16:25:10;7.30;;;2.70;;
66487;SDS011;53304;54.550;18.526;2023-02-28T16:27:37;6.35;;;2.95;;
66487;SDS011;53304;54.550;18.526;2023-02-28T16:30:05;4.90;;;2.67;;
66487;SDS011;53304;54.550;18.526;2023-02-28T16:32:33;5.85;;;2.90;;
66487;SDS011;53304;54.550;18.526;2023-02-28T16:35:00;5.25;;;2.65;;
66487;SDS011;53304;54.550;18.526;2023-02-28T16:37:29;7.35;;;2.65;;
66487;SDS011;53304;54.550;18.526;2023-02-28T16:39:54;6.35;;;2.88;;
66487;SDS011;53304;54.550;18.526;2023-02-28T16:42:23;6.60;;;2.90;;
66487;SDS011;53304;54.550;18.526;2023-02-28T16:44:51;6.53;;;3.15;;
66487;SDS011;53304;54.550;18.526;2023-02-28T16:47:19;6.72;;;2.85;;
66487;SDS011;53304;54.550;18.526;2023-02-28T16:49:45;7.40;;;3.17;;
66487;SDS011;53304;54.550;18.526;2023-02-28T16:52:12;5.97;;;3.10;;
66487;SDS011;53304;54.550;18.526;2023-02-28T16:54:40;12.10;;;3.38;;
66487;SDS011;53304;54.550;18.526;2023-02-28T16:59:44;29.20;;;5.72;;
66487;SDS011;53304;54.550;18.526;2023-02-28T17:02:16;51.50;;;7.70;;
66487;SDS011;53304;54.550;18.526;2023-02-28T17:04:44;70.88;;;9.07;;
66487;SDS011;53304;54.550;18.526;2023-02-28T17:07:13;95.78;;;11.57;;
66487;SDS011;53304;54.550;18.526;2023-02-28T17:09:41;74.25;;;10.15;;
66487;SDS011;53304;54.550;18.526;2023-02-28T17:12:07;114.13;;;12.32;;
66487;SDS011;53304;54.550;18.526;2023-02-28T17:14:33;83.00;;;11.85;;
66487;SDS011;53304;54.550;18.526;2023-02-28T17:16:59;87.15;;;11.57;;
66487;SDS011;53304;54.550;18.526;2023-02-28T17:19:25;78.15;;;10.05;;
66487;SDS011;53304;54.550;18.526;2023-02-28T17:21:50;83.57;;;11.38;;
66487;SDS011;53304;54.550;18.526;2023-02-28T17:24:20;85.88;;;10.77;;
66487;SDS011;53304;54.550;18.526;2023-02-28T17:26:47;73.43;;;9.93;;
66487;SDS011;53304;54.550;18.526;2023-02-28T17:29:18;67.22;;;9.73;;
66487;SDS011;53304;54.550;18.526;2023-02-28T17:31:45;55.08;;;8.52;;
66487;SDS011;53304;54.550;18.526;2023-02-28T17:34:11;59.97;;;9.23;;
66487;SDS011;53304;54.550;18.526;2023-02-28T17:36:46;46.40;;;7.65;;
66487;SDS011;53304;54.550;18.526;2023-02-28T17:39:16;57.95;;;8.75;;
66487;SDS011;53304;54.550;18.526;2023-02-28T17:41:52;39.58;;;8.25;;
66487;SDS011;53304;54.550;18.526;2023-02-28T17:44:21;49.20;;;8.13;;
66487;SDS011;53304;54.550;18.526;2023-02-28T17:46:51;44.58;;;7.88;;
66487;SDS011;53304;54.550;18.526;2023-02-28T17:49:17;41.15;;;7.50;;
66487;SDS011;53304;54.550;18.526;2023-02-28T17:51:43;44.28;;;7.57;;